Time;durP1;ratioP1;P1;durP2;ratioP2;P2;SDS_P1;SDS_P2;PMS_P1;PMS_P2;Temp;Humidity;BMP_temperature;BMP_pressure;BME280_temperature;BME280_humidity;BME280_pressure;Samples;Min_cycle;Max_cycle;Signal;HPM_P1;HPM_P2
2022/01/12 00:01:05;;;;;;;;;46.67;39.00;;;;;3.94;72.88;100619.81;4999444;28;45356;-77
2022/01/12 00:03:32;;;;;;;;;34.00;33.00;;;;;3.93;72.14;100618.06;4999212;28;45365;-78
2022/01/12 00:05:58;;;;;;;;;41.67;39.33;;;;;3.93;71.71;100621.53;4998614;28;45361;-78
2022/01/12 00:08:25;;;;;;;;;41.00;35.00;;;;;3.91;71.58;100619.75;4996079;28;46363;-78
2022/01/12 00:10:50;;;;;;;;;47.67;37.67;;;;;3.90;71.65;100618.88;4984116;28;45369;-78
2022/01/12 00:13:16;;;;;;;;;43.00;33.33;;;;;3.90;71.43;100625.84;4994915;28;45393;-78
2022/01/12 00:15:41;;;;;;;;;41.33;31.67;;;;;3.90;71.17;100623.22;5001192;28;45493;-78
2022/01/12 00:18:06;;;;;;;;;34.67;32.33;;;;;3.89;71.02;100626.69;4990551;28;45428;-78
2022/01/12 00:20:32;;;;;;;;;26.00;26.00;;;;;3.88;71.15;100619.72;4994683;28;45328;-78
2022/01/12 00:22:57;;;;;;;;;42.67;35.33;;;;;3.85;70.84;100620.59;5005500;28;45418;-78
2022/01/12 00:25:27;;;;;;;;;33.33;30.33;;;;;3.83;70.84;100619.69;4997517;28;45429;-78
2022/01/12 00:33:22;;;;;;;;;32.67;27.33;;;;;3.75;70.96;100611.78;4997052;28;45474;-78
2022/01/12 00:35:52;;;;;;;;;33.67;31.33;;;;;3.72;70.55;100614.34;5000208;28;45554;-78
2022/01/12 00:38:20;;;;;;;;;35.33;29.67;;;;;3.68;70.43;100615.19;4984974;28;46316;-78
2022/01/12 00:40:48;;;;;;;;;35.00;28.00;;;;;3.65;70.31;100612.53;4989808;28;45504;-78
2022/01/12 00:43:16;;;;;;;;;30.67;28.00;;;;;3.62;70.49;100606.41;4994948;28;45266;-79
2022/01/12 00:45:42;;;;;;;;;30.00;27.33;;;;;3.61;70.36;100612.47;4995579;28;45463;-79
2022/01/12 00:48:09;;;;;;;;;33.00;24.33;;;;;3.60;70.01;100613.34;5004798;28;46487;-78
2022/01/12 00:50:35;;;;;;;;;23.00;21.33;;;;;3.61;69.98;100613.34;4993919;28;45338;-78
2022/01/12 00:53:03;;;;;;;;;26.00;24.33;;;;;3.58;70.10;100608.09;5001254;28;45392;-78
2022/01/12 00:55:30;;;;;;;;;34.67;26.67;;;;;3.57;69.97;100611.56;4994507;28;45366;-78
2022/01/12 00:57:57;;;;;;;;;30.00;25.00;;;;;3.58;69.90;100607.22;4997590;28;45506;-78
2022/01/12 01:00:23;;;;;;;;;31.00;26.00;;;;;3.57;69.43;100610.69;4994658;28;45429;-78
2022/01/12 01:02:48;;;;;;;;;27.33;24.67;;;;;3.57;69.87;100616.78;4997002;28;45307;-77
2022/01/12 01:05:19;;;;;;;;;38.67;30.00;;;;;3.58;70.22;100617.66;4998402;28;45495;-78
2022/01/12 01:07:44;;;;;;;;;36.00;29.67;;;;;3.53;69.92;100609.75;4999112;28;45393;-78
2022/01/12 01:10:14;;;;;;;;;35.33;30.00;;;;;3.55;69.72;100617.59;5011800;28;45508;-78
2022/01/12 01:12:39;;;;;;;;;30.67;25.67;;;;;3.56;70.35;100621.97;4999823;28;45485;-78
2022/01/12 01:15:13;;;;;;;;;34.00;32.33;;;;;3.57;70.01;100628.94;4997205;28;45409;-78
2022/01/12 01:25:50;;;;;;;;;24.67;23.67;;;;;3.52;70.43;100634.09;4990091;28;45483;-78
2022/01/12 01:28:16;;;;;;;;;31.67;29.33;;;;;3.52;70.22;100633.25;4997014;28;45517;-79
2022/01/12 01:30:44;;;;;;;;;38.67;32.67;;;;;3.48;70.31;100625.38;4997065;28;45492;-78
2022/01/12 01:33:12;;;;;;;;;35.00;30.67;;;;;3.46;70.34;100627.09;4997049;28;45469;-78
2022/01/12 01:35:43;;;;;;;;;27.33;25.67;;;;;3.45;70.93;100627.06;4992372;28;45566;-78
2022/01/12 01:38:08;;;;;;;;;26.33;26.33;;;;;3.44;70.46;100630.53;4992679;28;47019;-78
2022/01/12 01:40:37;;;;;;;;;26.00;26.00;;;;;3.46;70.24;100628.81;4991048;28;45326;-78
2022/01/12 01:53:49;;;;;;;;;26.33;26.00;;;;;3.39;70.27;100637.41;4980038;28;45502;-79
2022/01/12 01:56:16;;;;;;;;;32.67;27.33;;;;;3.36;70.69;100632.13;5002218;28;45527;-78
2022/01/12 01:58:41;;;;;;;;;32.67;30.33;;;;;3.35;70.28;100633.88;4996257;28;45657;-79
2022/01/12 02:01:07;;;;;;;;;44.33;35.00;;;;;3.38;70.66;100636.50;4984585;28;45374;-78
2022/01/12 02:03:33;;;;;;;;;36.00;30.67;;;;;3.36;70.48;100635.63;4992952;28;45222;-78
2022/01/12 02:05:59;;;;;;;;;36.00;31.00;;;;;3.36;70.83;100640.81;4991978;28;45469;-78
2022/01/12 02:08:26;;;;;;;;;38.33;36.67;;;;;3.38;71.19;100640.84;4994558;28;45381;-77
2022/01/12 02:10:55;;;;;;;;;36.00;31.33;;;;;3.37;70.72;100645.19;4986537;28;45354;-78
2022/01/12 02:13:22;;;;;;;;;41.67;33.67;;;;;3.35;71.04;100646.91;4983279;28;45731;-78
2022/01/12 02:15:48;;;;;;;;;28.33;27.33;;;;;3.34;70.58;100642.56;4986574;28;45379;-78
2022/01/12 02:18:39;;;;;;;;;38.00;35.00;;;;;3.38;70.56;100648.69;4978395;28;45609;-78
2022/01/12 02:40:36;;;;;;;;;22.33;18.33;;;;;3.34;69.42;100636.47;4991216;28;45437;-78
2022/01/12 02:43:12;;;;;;;;;23.67;23.33;;;;;3.29;69.17;100625.09;4982481;28;45410;-78
2022/01/12 02:51:17;;;;;;;;;25.33;21.33;;;;;3.25;69.01;100625.91;4988453;28;45894;-78
2022/01/12 02:53:44;;;;;;;;;33.33;25.67;;;;;3.22;69.24;100618.94;4989962;28;45479;-78
2022/01/12 02:56:11;;;;;;;;;22.33;17.33;;;;;3.18;69.34;100614.56;4987288;28;45326;-78
2022/01/12 02:58:37;;;;;;;;;25.00;25.00;;;;;3.18;69.03;100618.88;4987948;28;45540;-78
2022/01/12 03:03:37;;;;;;;;;21.67;21.00;;;;;3.11;69.11;100616.19;4992137;28;45313;-78
2022/01/12 03:06:06;;;;;;;;;26.33;25.33;;;;;3.09;69.13;100620.50;4985223;28;45287;-78
2022/01/12 03:08:37;;;;;;;;;23.00;17.33;;;;;3.10;69.25;100618.78;4991408;28;45607;-78
2022/01/12 03:11:05;;;;;;;;;28.00;25.33;;;;;3.11;69.14;100617.91;4987099;28;45548;-78
2022/01/12 03:13:30;;;;;;;;;34.33;26.33;;;;;3.11;69.51;100628.34;4990615;28;45354;-78
2022/01/12 03:15:56;;;;;;;;;20.67;17.67;;;;;3.09;69.35;100617.88;4987364;28;45797;-78
2022/01/12 03:18:22;;;;;;;;;23.00;23.00;;;;;3.09;69.08;100617.88;4993894;28;45431;-79
2022/01/12 03:20:47;;;;;;;;;21.33;19.33;;;;;3.11;69.03;100616.19;4994013;28;48099;-78
2022/01/12 03:23:14;;;;;;;;;25.00;21.33;;;;;3.10;69.10;100621.38;4995459;28;45426;-79
2022/01/12 03:25:40;;;;;;;;;23.67;20.33;;;;;3.10;69.10;100621.38;4995427;28;45434;-78
2022/01/12 03:28:07;;;;;;;;;24.33;23.33;;;;;3.09;69.02;100622.22;5007018;28;45259;-78
2022/01/12 03:30:52;;;;;;;;;25.67;24.33;;;;;3.10;69.66;100623.97;4994707;28;46817;-78
2022/01/12 03:38:42;;;;;;;;;23.33;19.33;;;;;3.09;69.09;100623.09;4995342;28;45424;-79
2022/01/12 03:41:08;;;;;;;;;26.00;23.33;;;;;3.06;68.75;100625.66;4995047;28;45446;-78
2022/01/12 03:43:33;;;;;;;;;25.00;25.00;;;;;3.08;68.99;100630.88;5010437;28;45481;-79
2022/01/12 03:45:59;;;;;;;;;23.33;23.33;;;;;3.06;68.85;100628.25;4992845;28;45438;-79
2022/01/12 03:48:24;;;;;;;;;24.67;24.67;;;;;3.05;68.99;100628.25;4994995;28;45428;-79
2022/01/12 03:50:50;;;;;;;;;22.67;21.67;;;;;3.06;69.41;100627.38;4988571;28;46172;-79
2022/01/12 03:53:16;;;;;;;;;32.33;24.67;;;;;3.05;69.11;100634.31;4987158;28;45327;-78
2022/01/12 03:55:43;;;;;;;;;29.67;23.00;;;;;3.07;69.22;100637.84;4976876;28;45447;-78
2022/01/12 03:58:11;;;;;;;;;26.00;23.67;;;;;3.07;69.34;100640.44;5003314;28;45140;-78
2022/01/12 04:00:37;;;;;;;;;32.00;29.00;;;;;3.08;69.28;100649.13;4994764;28;45436;-78
2022/01/12 04:03:05;;;;;;;;;23.67;17.33;;;;;3.07;68.94;100650.84;4994966;28;45445;-78
2022/01/12 04:08:20;;;;;;;;;27.00;26.00;;;;;3.03;68.96;100659.47;4988085;28;45437;-78
2022/01/12 04:10:57;;;;;;;;;24.00;20.00;;;;;3.02;69.53;100657.72;4982060;28;48101;-77
2022/01/12 04:13:24;;;;;;;;;26.33;23.67;;;;;3.01;69.53;100665.53;4991200;28;45547;-78
2022/01/12 04:15:54;;;;;;;;;27.33;21.33;;;;;3.00;69.88;100661.19;4986294;28;45408;-78
2022/01/12 04:18:20;;;;;;;;;22.67;22.67;;;;;2.98;69.96;100666.38;4994156;28;45545;-78
2022/01/12 04:20:47;;;;;;;;;32.33;24.67;;;;;2.96;69.86;100664.59;4983429;28;46125;-78
2022/01/12 04:23:19;;;;;;;;;20.67;19.00;;;;;2.95;70.24;100668.91;5003554;28;45438;-78
2022/01/12 04:25:47;;;;;;;;;28.33;23.00;;;;;2.94;70.19;100663.69;4994586;28;45332;-78
2022/01/12 04:28:13;;;;;;;;;25.33;24.00;;;;;2.95;70.13;100673.25;4995838;28;45553;-78
2022/01/12 04:30:39;;;;;;;;;21.67;21.67;;;;;2.92;69.99;100661.06;4997806;28;45600;-78
2022/01/12 04:33:04;;;;;;;;;27.67;24.00;;;;;2.91;69.69;100661.91;5007486;28;46016;-78
2022/01/12 04:35:34;;;;;;;;;27.33;24.00;;;;;2.94;69.83;100667.16;4990243;28;45335;-78
2022/01/12 04:37:59;;;;;;;;;23.00;22.67;;;;;2.94;69.69;100661.94;5021910;28;45477;-78
2022/01/12 04:40:25;;;;;;;;;22.33;20.33;;;;;2.93;69.57;100654.13;4987712;28;46225;-78
2022/01/12 04:42:55;;;;;;;;;26.00;24.33;;;;;2.96;69.44;100664.59;5002476;28;45429;-78
2022/01/12 04:50:20;;;;;;;;;26.00;25.67;;;;;3.00;69.96;100663.78;4991761;28;45491;-78
2022/01/12 04:52:46;;;;;;;;;21.33;20.33;;;;;3.00;69.36;100663.78;5009750;28;45323;-77
2022/01/12 04:55:11;;;;;;;;;27.00;22.67;;;;;3.01;69.47;100660.34;4997405;28;45318;-78
2022/01/12 04:57:37;;;;;;;;;26.67;23.00;;;;;3.01;69.56;100670.75;5002653;28;45566;-78
2022/01/12 05:00:16;;;;;;;;;28.00;25.67;;;;;3.01;69.59;100668.16;5009795;28;46992;-78
2022/01/12 05:13:28;;;;;;;;;28.33;24.33;;;;;2.97;69.82;100697.59;4994758;28;45467;-78
2022/01/12 05:15:54;;;;;;;;;26.67;23.00;;;;;2.97;69.15;100708.91;4992769;28;45567;-78
2022/01/12 05:18:20;;;;;;;;;29.00;27.33;;;;;2.96;69.34;100712.34;4991749;28;45584;-78
2022/01/12 05:20:46;;;;;;;;;24.00;21.00;;;;;2.95;70.08;100720.13;4988793;28;45331;-77
2022/01/12 05:23:12;;;;;;;;;26.00;24.33;;;;;2.93;69.71;100719.22;4997012;28;45426;-77
2022/01/12 05:25:38;;;;;;;;;25.67;21.33;;;;;2.92;69.47;100720.09;4995375;28;45334;-77
2022/01/12 05:28:03;;;;;;;;;31.67;26.00;;;;;2.92;69.44;100718.34;4996972;28;45440;-77
2022/01/12 05:30:29;;;;;;;;;20.33;18.00;;;;;2.92;69.41;100723.56;4996750;28;46607;-77
2022/01/12 05:32:54;;;;;;;;;20.33;17.33;;;;;2.90;69.23;100722.66;4996841;28;45408;-77
2022/01/12 05:35:21;;;;;;;;;22.67;20.67;;;;;2.90;69.36;100727.00;4983687;28;45437;-78
2022/01/12 05:37:46;;;;;;;;;28.00;23.67;;;;;2.86;69.23;100728.66;4993197;28;46296;-77
2022/01/12 05:40:14;;;;;;;;;16.67;14.67;;;;;2.83;68.92;100723.44;5012128;28;45612;-77
2022/01/12 05:42:40;;;;;;;;;26.00;24.00;;;;;2.81;69.07;100730.34;5006811;28;45475;-78
2022/01/12 05:45:08;;;;;;;;;24.00;22.33;;;;;2.80;69.19;100737.28;4989360;28;45242;-78
2022/01/12 05:50:28;;;;;;;;;22.67;19.33;;;;;2.80;69.81;100739.00;4995677;28;46361;-78
2022/01/12 05:52:55;;;;;;;;;28.33;23.67;;;;;2.78;69.42;100744.16;5006188;28;45460;-78
2022/01/12 05:55:21;;;;;;;;;23.33;21.33;;;;;2.77;69.17;100749.34;4983127;28;45326;-78
2022/01/12 05:57:48;;;;;;;;;24.67;23.00;;;;;2.76;69.05;100753.69;5005742;28;45574;-78
2022/01/12 06:00:16;;;;;;;;;25.67;22.00;;;;;2.76;69.03;100755.41;4983019;28;45402;-78
2022/01/12 06:02:41;;;;;;;;;26.67;21.00;;;;;2.75;68.81;100754.53;4996478;28;45529;-78
2022/01/12 06:05:08;;;;;;;;;23.67;21.33;;;;;2.78;69.00;100754.59;4996276;28;45362;-78
2022/01/12 06:07:34;;;;;;;;;22.00;19.33;;;;;2.79;69.20;100758.94;4996253;28;45422;-78
2022/01/12 06:10:00;;;;;;;;;23.00;20.00;;;;;2.79;68.96;100753.75;4996244;28;46706;-78
2022/01/12 06:12:26;;;;;;;;;25.00;24.00;;;;;2.77;69.17;100758.03;4995809;28;45366;-78
2022/01/12 06:14:52;;;;;;;;;27.67;24.00;;;;;2.80;69.04;100768.53;4996006;28;45187;-78
2022/01/12 06:17:17;;;;;;;;;31.33;27.33;;;;;2.81;68.73;100772.00;4996168;28;45488;-78
2022/01/12 06:19:43;;;;;;;;;26.33;23.67;;;;;2.83;68.82;100766.81;4982655;28;46105;-79
2022/01/12 06:22:08;;;;;;;;;22.33;22.00;;;;;2.83;68.55;100772.03;4995128;28;45230;-79
2022/01/12 06:24:34;;;;;;;;;23.00;21.33;;;;;2.82;68.62;100768.53;4982892;28;45291;-79
2022/01/12 06:27:01;;;;;;;;;28.00;23.00;;;;;2.86;68.50;100779.88;4995276;28;45496;-79
2022/01/12 06:31:10;;;;;;;;;18.67;18.67;;;;;2.86;68.21;100780.75;5010172;28;47478;-79
2022/01/12 06:32:17;;;;;;;;;21.00;17.33;;;;;2.84;68.45;100779.88;4997945;28;45320;-79
2022/01/12 06:34:45;;;;;;;;;25.33;20.00;;;;;2.85;68.41;100785.97;4986101;28;45278;-79
2022/01/12 06:37:11;;;;;;;;;19.00;12.67;;;;;2.85;68.34;100781.59;4988107;28;45343;-79
2022/01/12 06:39:36;;;;;;;;;18.33;16.67;;;;;2.83;68.08;100791.13;4995181;28;46268;-81
2022/01/12 06:42:02;;;;;;;;;25.00;21.00;;;;;2.84;68.29;100794.63;4999125;28;45519;-80
2022/01/12 06:44:27;;;;;;;;;25.33;21.67;;;;;2.84;68.29;100805.91;4981531;28;45471;-80
2022/01/12 06:47:14;;;;;;;;;23.67;21.67;;;;;2.84;68.37;100797.22;5092631;27;1369315;-79
2022/01/12 06:49:39;;;;;;;;;21.67;19.33;;;;;2.87;67.89;100802.47;5124270;27;45402;-79
2022/01/12 06:52:05;;;;;;;;;23.67;20.33;;;;;2.86;68.00;100812.00;5129657;27;45557;-80
2022/01/12 06:54:31;;;;;;;;;23.00;21.67;;;;;2.83;67.64;100811.97;5123761;27;45430;-79
2022/01/12 06:56:56;;;;;;;;;21.67;18.33;;;;;2.82;67.81;100815.44;5108775;27;47614;-80
2022/01/12 06:59:22;;;;;;;;;18.67;18.33;;;;;2.82;68.07;100815.44;5123452;27;45503;-80
2022/01/12 07:01:48;;;;;;;;;22.67;19.67;;;;;2.83;67.96;100819.78;5124632;27;45541;-79
2022/01/12 07:04:13;;;;;;;;;20.00;19.67;;;;;2.83;67.76;100822.41;5120600;27;45424;-79
2022/01/12 07:06:39;;;;;;;;;23.33;22.33;;;;;2.84;68.04;100826.75;5117466;27;45619;-80
2022/01/12 07:09:05;;;;;;;;;30.33;29.00;;;;;2.85;67.89;100833.69;5110535;27;45370;-79
2022/01/12 07:11:30;;;;;;;;;20.67;20.67;;;;;2.86;68.34;100835.44;5123764;27;45416;-79
2022/01/12 07:13:56;;;;;;;;;25.33;23.67;;;;;2.86;68.47;100845.84;5120794;27;45306;-80
2022/01/12 07:16:22;;;;;;;;;28.33;25.00;;;;;2.86;68.38;100845.84;5127197;27;46465;-79
2022/01/12 07:18:47;;;;;;;;;26.00;23.33;;;;;2.87;68.67;100857.16;5119209;27;45352;-79
2022/01/12 07:21:13;;;;;;;;;23.00;23.00;;;;;2.85;68.76;100858.88;5117852;27;45385;-79
2022/01/12 07:23:38;;;;;;;;;31.33;24.33;;;;;2.86;68.65;100864.09;5124272;27;45297;-79
2022/01/12 07:26:04;;;;;;;;;22.00;20.67;;;;;2.87;68.37;100871.06;5116988;27;46435;-79
2022/01/12 07:28:29;;;;;;;;;23.00;21.33;;;;;2.85;68.72;100867.53;5123879;27;45364;-80
2022/01/12 07:30:55;;;;;;;;;25.00;23.00;;;;;2.84;69.05;100870.16;5094884;27;45365;-79
2022/01/12 07:33:22;;;;;;;;;24.00;23.33;;;;;2.83;68.50;100873.59;5132187;27;45548;-79
2022/01/12 07:35:48;;;;;;;;;26.00;23.00;;;;;2.84;68.72;100867.53;5121818;27;46297;-79
2022/01/12 07:38:13;;;;;;;;;18.33;14.67;;;;;2.84;68.47;100880.56;5132329;27;45481;-80
2022/01/12 07:40:39;;;;;;;;;27.00;21.67;;;;;2.87;68.79;100885.81;5130879;27;45508;-80
2022/01/12 07:43:06;;;;;;;;;25.00;21.33;;;;;2.88;68.90;100891.06;5111293;27;45340;-81
2022/01/12 07:45:32;;;;;;;;;19.33;17.00;;;;;2.88;68.72;100896.25;5113584;27;45737;-82
2022/01/12 07:47:58;;;;;;;;;25.33;23.33;;;;;2.88;68.29;100896.25;5119488;27;45288;-79
2022/01/12 07:50:24;;;;;;;;;26.33;22.33;;;;;2.89;68.27;100894.53;5094140;27;45322;-79
2022/01/12 07:52:53;;;;;;;;;22.67;22.00;;;;;2.88;68.66;100900.59;5128312;27;45476;-80
2022/01/12 07:55:20;;;;;;;;;21.33;15.00;;;;;2.89;68.96;100903.22;5129223;27;45709;-79
2022/01/12 07:57:46;;;;;;;;;25.00;22.67;;;;;2.91;68.71;100903.25;5091471;27;45366;-80
2022/01/12 08:01:21;;;;;;;;;23.00;18.00;;;;;2.97;68.35;100903.38;5103730;27;45380;-80
2022/01/12 08:03:54;;;;;;;;;18.00;16.67;;;;;2.98;68.15;100895.59;5066876;27;45563;-80
2022/01/12 08:06:20;;;;;;;;;20.00;18.33;;;;;2.94;67.62;100899.00;5117703;27;45469;-80
2022/01/12 08:08:46;;;;;;;;;24.00;19.33;;;;;2.97;67.77;100903.38;5111831;27;45272;-80
2022/01/12 08:11:12;;;;;;;;;21.33;17.33;;;;;2.98;67.65;100894.72;5111077;27;45303;-79
2022/01/12 08:13:39;;;;;;;;;22.00;19.00;;;;;3.03;67.96;100901.75;5104396;27;45508;-79
2022/01/12 08:16:05;;;;;;;;;18.00;18.00;;;;;3.05;67.75;100907.00;5104801;27;45426;-81
2022/01/12 08:18:30;;;;;;;;;20.00;20.00;;;;;3.05;67.28;100909.59;5110677;27;45437;-81
2022/01/12 08:20:56;;;;;;;;;24.67;20.33;;;;;3.07;67.37;100906.19;5092219;27;45364;-79
2022/01/12 08:23:21;;;;;;;;;25.33;23.00;;;;;3.07;67.56;100914.00;5104202;27;45543;-80
2022/01/12 08:25:47;;;;;;;;;22.33;19.67;;;;;3.08;67.51;100909.66;5117585;27;45578;-81
2022/01/12 08:28:12;;;;;;;;;20.67;20.33;;;;;3.08;67.55;100910.53;5117938;27;45343;-79
2022/01/12 08:30:39;;;;;;;;;22.67;21.00;;;;;3.11;67.56;100907.13;5105368;27;45416;-79
2022/01/12 08:33:05;;;;;;;;;19.67;18.00;;;;;3.12;67.23;100912.38;5098218;27;45547;-80
2022/01/12 08:35:31;;;;;;;;;22.67;19.00;;;;;3.14;66.87;100915.00;5117743;27;45439;-79
2022/01/12 08:37:57;;;;;;;;;26.67;20.67;;;;;3.17;66.71;100914.19;5103595;27;45266;-79
2022/01/12 08:40:24;;;;;;;;;18.67;16.00;;;;;3.20;66.38;100907.28;5118075;27;45405;-79
2022/01/12 08:42:50;;;;;;;;;20.00;17.33;;;;;3.21;66.25;100913.38;5111407;27;45429;-79
2022/01/12 08:45:16;;;;;;;;;20.67;16.33;;;;;3.24;66.35;100913.44;5108829;27;45578;-79
2022/01/12 08:47:42;;;;;;;;;20.67;20.00;;;;;3.24;66.37;100919.53;5097576;27;45673;-79
2022/01/12 08:50:09;;;;;;;;;21.67;19.67;;;;;3.23;66.11;100911.69;5116910;27;45347;-79
2022/01/12 08:52:34;;;;;;;;;25.67;20.67;;;;;3.25;66.04;100909.97;5118738;27;45358;-85
2022/01/12 08:55:00;;;;;;;;;27.33;23.00;;;;;3.26;66.16;100909.13;5087392;27;47397;-86
2022/01/12 08:57:30;;;;;;;;;24.00;17.33;;;;;3.31;65.66;100920.53;5100249;27;45495;-86
2022/01/12 09:00:00;;;;;;;;;22.00;19.67;;;;;3.32;65.25;100919.69;5093859;27;45400;-87
2022/01/12 09:02:26;;;;;;;;;19.33;17.67;;;;;3.31;65.40;100905.78;5098676;27;45272;-87
2022/01/12 09:04:51;;;;;;;;;18.67;16.00;;;;;3.33;65.28;100924.03;5119668;27;46183;-87
2022/01/12 09:07:18;;;;;;;;;19.67;18.33;;;;;3.33;65.68;100932.75;5101454;27;45346;-87
2022/01/12 09:09:43;;;;;;;;;27.33;20.67;;;;;3.36;65.71;100940.59;5085467;27;45473;-87
2022/01/12 09:12:09;;;;;;;;;20.33;19.33;;;;;3.36;66.26;100937.97;5099933;27;45350;-87
2022/01/12 09:14:35;;;;;;;;;22.33;18.67;;;;;3.37;66.49;100951.91;5117693;27;46705;-86
2022/01/12 09:17:00;;;;;;;;;26.33;20.67;;;;;3.38;65.93;100953.66;5105632;27;45321;-87
2022/01/12 09:19:27;;;;;;;;;23.00;20.00;;;;;3.41;66.00;100958.94;5087670;27;45428;-87
2022/01/12 09:21:53;;;;;;;;;33.67;28.67;;;;;3.46;66.21;100959.91;5089602;27;45266;-86
2022/01/12 09:24:19;;;;;;;;;30.67;25.33;;;;;3.48;65.88;100968.63;5111255;27;47912;-87
2022/01/12 09:26:46;;;;;;;;;27.67;22.67;;;;;3.50;65.91;100970.41;5094095;27;45401;-87
2022/01/12 09:29:11;;;;;;;;;26.33;23.33;;;;;3.52;65.51;100975.63;5088037;27;45506;-86
2022/01/12 09:31:37;;;;;;;;;22.33;20.00;;;;;3.53;65.68;100977.41;5093792;27;45281;-87
2022/01/12 09:34:03;;;;;;;;;25.67;19.67;;;;;3.55;65.43;100983.50;5094648;27;46740;-86
2022/01/12 09:36:29;;;;;;;;;37.00;31.33;;;;;3.57;65.68;100980.94;5102596;27;44985;-87
2022/01/12 09:38:55;;;;;;;;;25.33;24.67;;;;;3.60;65.89;100979.28;5125497;27;45087;-86
2022/01/12 09:41:22;;;;;;;;;25.00;21.00;;;;;3.61;65.98;100985.38;5091544;27;44827;-86
2022/01/12 09:43:49;;;;;;;;;28.00;21.33;;;;;3.65;66.00;100990.69;5103038;27;45534;-86
2022/01/12 09:46:15;;;;;;;;;20.00;19.33;;;;;3.71;65.71;100995.09;5081651;27;45442;-87
2022/01/12 09:48:41;;;;;;;;;28.00;24.33;;;;;3.73;66.23;100998.63;5096813;27;45326;-87
2022/01/12 09:51:09;;;;;;;;;24.67;22.67;;;;;3.73;65.28;101006.44;5111220;27;45491;-86
2022/01/12 09:53:37;;;;;;;;;30.00;24.67;;;;;3.74;65.39;101005.59;5101227;27;47200;-87
2022/01/12 09:56:09;;;;;;;;;29.00;24.67;;;;;3.75;65.79;100997.78;5101821;27;45412;-87
2022/01/12 09:58:35;;;;;;;;;26.67;22.67;;;;;3.79;65.40;100998.72;5086721;27;45231;-87
2022/01/12 10:01:02;;;;;;;;;24.00;23.33;;;;;3.81;65.09;100997.03;5100796;27;45552;-87
2022/01/12 10:03:28;;;;;;;;;25.33;21.00;;;;;3.83;64.66;100990.13;5082583;27;47067;-87
2022/01/12 10:05:54;;;;;;;;;29.00;22.00;;;;;3.85;64.15;100993.63;5107227;27;45329;-87
2022/01/12 10:08:20;;;;;;;;;22.00;20.00;;;;;3.86;64.29;101000.56;5099432;27;45273;-87
2022/01/12 10:11:06;;;;;;;;;18.67;17.00;;;;;3.88;64.11;100996.28;5089482;27;45396;-86
2022/01/12 10:13:33;;;;;;;;;24.00;22.00;;;;;3.90;64.39;100991.09;5078556;27;46978;-86
2022/01/12 10:16:16;;;;;;;;;26.33;19.00;;;;;3.92;64.18;100990.25;5090861;27;45332;-86
2022/01/12 10:19:01;;;;;;;;;18.00;18.00;;;;;3.97;63.98;100987.72;5079917;27;45252;-86
2022/01/12 10:21:38;;;;;;;;;19.00;16.67;;;;;3.97;63.70;100988.63;5091915;27;45438;-86
2022/01/12 10:24:18;;;;;;;;;18.00;16.33;;;;;4.00;63.88;100987.78;5079206;27;47611;-86
2022/01/12 10:26:45;;;;;;;;;15.67;15.67;;;;;4.02;63.51;100975.66;5104346;27;45422;-87
2022/01/12 10:29:13;;;;;;;;;17.00;16.00;;;;;4.07;63.28;100977.47;5098444;27;45447;-86
2022/01/12 10:31:46;;;;;;;;;19.67;16.00;;;;;4.09;63.48;100973.16;5097366;27;45185;-86
2022/01/12 10:34:11;;;;;;;;;21.00;20.00;;;;;4.10;63.84;100979.25;5111183;27;45342;-86
2022/01/12 10:36:41;;;;;;;;;18.33;16.33;;;;;4.09;63.55;100969.66;5078642;27;45178;-86
2022/01/12 10:39:12;;;;;;;;;24.00;21.00;;;;;4.13;63.44;100976.69;5096572;27;45478;-85
2022/01/12 10:41:53;;;;;;;;;21.33;17.67;;;;;4.19;63.34;100972.41;5088765;27;45457;-86
2022/01/12 10:44:24;;;;;;;;;20.33;16.33;;;;;4.22;63.02;100972.47;5096271;27;46709;-86
2022/01/12 10:46:50;;;;;;;;;19.00;16.67;;;;;4.27;63.39;100975.16;5097600;27;45655;-86
2022/01/12 10:49:20;;;;;;;;;22.33;19.33;;;;;4.30;62.85;100967.38;5084094;27;45504;-87
2022/01/12 10:51:57;;;;;;;;;18.67;14.00;;;;;4.33;62.90;100962.22;5086207;27;45597;-86
2022/01/12 10:54:23;;;;;;;;;23.00;19.67;;;;;4.32;63.02;100957.84;5104574;27;45267;-86
2022/01/12 10:56:49;;;;;;;;;19.00;19.00;;;;;4.36;62.67;100956.13;5103645;27;45239;-87
2022/01/12 10:59:18;;;;;;;;;17.00;16.33;;;;;4.42;63.01;100954.50;5085171;27;45387;-87
2022/01/12 11:01:44;;;;;;;;;21.00;17.00;;;;;4.47;63.25;100951.94;5116679;27;45569;-87
2022/01/12 11:04:10;;;;;;;;;28.00;25.33;;;;;4.52;62.50;100950.28;5088839;27;47630;-87
2022/01/12 11:06:36;;;;;;;;;20.00;18.67;;;;;4.57;62.32;100946.00;5097805;27;45448;-87
2022/01/12 11:09:04;;;;;;;;;22.67;20.67;;;;;4.61;62.12;100942.56;5107548;27;45351;-87
2022/01/12 11:11:29;;;;;;;;;24.67;22.33;;;;;4.64;62.20;100941.72;5109159;27;45387;-87
2022/01/12 11:13:55;;;;;;;;;21.33;19.67;;;;;4.66;62.11;100940.03;5087501;27;47822;-86
2022/01/12 11:16:27;;;;;;;;;21.33;21.33;;;;;4.71;62.88;100943.53;5096474;27;45354;-87
2022/01/12 11:18:54;;;;;;;;;23.67;19.33;;;;;4.75;61.78;100940.13;5104783;27;45387;-87
2022/01/12 11:21:45;;;;;;;;;22.00;21.00;;;;;4.79;61.40;100926.25;5083044;27;45466;-87
2022/01/12 11:24:15;;;;;;;;;27.00;24.33;;;;;4.80;61.40;100926.28;5101854;27;45835;-86
2022/01/12 11:26:49;;;;;;;;;23.00;21.67;;;;;4.86;61.24;100925.44;5101735;27;45323;-87
2022/01/12 11:29:28;;;;;;;;;25.33;20.67;;;;;4.91;61.34;100927.25;5100938;27;45432;-87
2022/01/12 11:32:12;;;;;;;;;26.67;22.33;;;;;4.97;60.91;100934.31;5105872;27;45276;-87
2022/01/12 11:34:38;;;;;;;;;22.00;18.67;;;;;5.00;60.58;100933.47;5086279;27;46853;-86
2022/01/12 11:37:16;;;;;;;;;20.33;19.00;;;;;5.05;61.11;100942.22;5087366;27;45270;-87
2022/01/12 11:39:42;;;;;;;;;27.67;24.00;;;;;5.06;60.74;100947.47;5088238;27;45399;-87
2022/01/12 11:42:08;;;;;;;;;23.67;17.33;;;;;5.11;61.01;100951.03;5109076;27;45263;-86
2022/01/12 11:44:36;;;;;;;;;19.33;18.33;;;;;5.14;60.63;100950.19;5111654;27;45371;-87
2022/01/12 11:47:03;;;;;;;;;18.67;17.00;;;;;5.06;60.89;100941.38;5080667;27;45530;-87
2022/01/12 11:49:46;;;;;;;;;15.67;10.33;;;;;5.04;60.43;100940.47;5092804;27;45408;-86
2022/01/12 11:52:22;;;;;;;;;17.33;16.33;;;;;5.03;60.83;100938.72;5097609;27;45455;-87
2022/01/12 11:54:53;;;;;;;;;29.33;26.33;;;;;4.98;60.37;100935.19;5090380;27;47723;-86
2022/01/12 11:57:30;;;;;;;;;22.67;19.33;;;;;4.98;60.15;100936.06;5094719;27;45408;-87
2022/01/12 12:00:00;;;;;;;;;22.67;20.33;;;;;5.06;60.23;100933.53;5094659;27;45225;-86
2022/01/12 12:02:36;;;;;;;;;22.67;20.00;;;;;5.16;60.47;100940.63;5101758;27;45451;-87
2022/01/12 12:05:09;;;;;;;;;20.33;18.67;;;;;5.24;60.24;100932.00;5111862;27;45407;-86
2022/01/12 12:07:48;;;;;;;;;24.33;20.67;;;;;5.31;60.18;100932.94;5111964;27;45441;-86
2022/01/12 12:10:17;;;;;;;;;16.67;14.00;;;;;5.36;59.77;100940.84;5108697;27;45410;-87
2022/01/12 12:12:43;;;;;;;;;17.33;16.33;;;;;5.40;59.35;100946.09;5107233;27;45323;-87
2022/01/12 12:15:11;;;;;;;;;21.33;19.00;;;;;5.43;60.07;100946.13;5087464;27;46864;-87
2022/01/12 12:17:38;;;;;;;;;22.67;17.67;;;;;5.47;59.77;100940.06;5080358;27;45316;-87
2022/01/12 12:20:07;;;;;;;;;30.33;23.33;;;;;5.47;59.64;100940.06;5079890;27;45273;-87
2022/01/12 12:22:40;;;;;;;;;25.00;19.33;;;;;5.47;59.89;100936.59;5111064;27;45271;-86
2022/01/12 12:25:09;;;;;;;;;26.33;24.00;;;;;5.50;60.04;100934.88;5086155;27;46735;-86
2022/01/12 12:27:36;;;;;;;;;20.33;17.67;;;;;5.51;59.90;100935.75;5104133;27;45375;-86
2022/01/12 12:30:08;;;;;;;;;26.33;22.00;;;;;5.53;59.86;100927.03;5092392;27;45381;-86
2022/01/12 12:32:34;;;;;;;;;22.67;20.33;;;;;5.57;59.54;100930.56;5093279;27;45296;-86
2022/01/12 12:35:02;;;;;;;;;26.67;23.33;;;;;5.58;60.00;100920.13;5087309;27;47931;-86
2022/01/12 12:37:38;;;;;;;;;27.67;21.67;;;;;5.61;59.98;100921.88;5097192;27;45702;-86
2022/01/12 12:40:15;;;;;;;;;22.33;17.67;;;;;5.66;59.57;100921.94;5108170;27;45376;-86